createdAt,value
2018-12-03T00:01:57.826Z,13.21
2018-12-03T00:04:36.165Z,13.19
2018-12-03T00:07:14.187Z,13.18
2018-12-03T00:09:51.514Z,13.18
2018-12-03T00:12:28.523Z,13.17
2018-12-03T00:15:05.901Z,13.18
2018-12-03T00:17:44.039Z,13.18
2018-12-03T00:20:21.081Z,13.20
2018-12-03T00:22:58.175Z,13.22
2018-12-03T00:25:35.763Z,13.36
2018-12-03T00:28:15.990Z,13.36
2018-12-03T00:30:52.246Z,13.35
2018-12-03T00:33:31.314Z,13.37
2018-12-03T00:36:09.993Z,13.37
2018-12-03T00:38:46.844Z,13.37
2018-12-03T00:41:24.310Z,13.39
2018-12-03T00:44:01.037Z,13.38
2018-12-03T00:46:40.024Z,13.37
2018-12-03T00:49:16.692Z,13.33
2018-12-03T00:51:54.618Z,13.30
2018-12-03T00:54:31.546Z,13.26
2018-12-03T00:57:08.793Z,13.25
2018-12-03T00:59:44.984Z,13.25
2018-12-03T01:02:27.226Z,13.24
2018-12-03T01:05:04.713Z,13.24
2018-12-03T01:07:41.197Z,13.25
2018-12-03T01:10:18.714Z,13.25
2018-12-03T01:12:56.688Z,13.26
2018-12-03T01:15:35.584Z,13.26
2018-12-03T01:18:14.254Z,13.29
2018-12-03T01:20:50.780Z,13.29
2018-12-03T01:23:28.885Z,13.26
2018-12-03T01:25:58.282Z,13.28
2018-12-03T01:28:27.580Z,13.33
2018-12-03T01:30:56.972Z,13.34
2018-12-03T01:33:26.294Z,13.36
2018-12-03T01:35:55.669Z,13.38
2018-12-03T01:38:25.009Z,13.39
2018-12-03T01:40:54.380Z,13.39
2018-12-03T01:43:23.692Z,13.38
2018-12-03T01:45:53.055Z,13.38
2018-12-03T01:48:22.412Z,13.38
2018-12-03T01:50:51.734Z,13.37
2018-12-03T01:53:21.056Z,13.35
2018-12-03T01:55:50.483Z,13.35
2018-12-03T01:58:19.803Z,13.35
2018-12-03T02:00:49.127Z,13.36
2018-12-03T02:03:18.472Z,13.36
2018-12-03T02:05:47.798Z,13.38
2018-12-03T02:08:17.131Z,13.37
2018-12-03T02:10:46.447Z,13.37
2018-12-03T02:13:15.773Z,13.37
2018-12-03T02:15:45.092Z,13.37
2018-12-03T02:18:14.529Z,13.39
2018-12-03T02:20:43.853Z,13.39
2018-12-03T02:23:13.179Z,13.39
2018-12-03T02:25:42.497Z,13.39
2018-12-03T02:28:11.821Z,13.38
2018-12-03T02:30:41.153Z,13.39
2018-12-03T02:33:10.457Z,13.40
2018-12-03T02:35:39.747Z,13.40
2018-12-03T02:38:09.138Z,13.39
2018-12-03T02:40:38.477Z,13.39
2018-12-03T02:43:07.822Z,13.40
2018-12-03T02:45:37.127Z,13.40
2018-12-03T02:48:06.802Z,13.39
2018-12-03T02:50:36.130Z,13.40
2018-12-03T02:53:06.961Z,13.40
2018-12-03T02:55:36.397Z,13.40
2018-12-03T02:58:05.992Z,13.40
2018-12-03T03:00:38.904Z,13.41
2018-12-03T03:03:08.566Z,13.41
2018-12-03T03:05:37.893Z,13.41
2018-12-03T03:08:07.473Z,13.42
2018-12-03T03:10:36.804Z,13.38
2018-12-03T03:13:06.231Z,13.40
2018-12-03T03:15:35.567Z,13.41
2018-12-03T03:18:04.912Z,13.40
2018-12-03T03:20:34.252Z,13.40
2018-12-03T03:23:03.604Z,13.40
2018-12-03T03:25:32.912Z,13.39
2018-12-03T03:28:02.250Z,13.39
2018-12-03T03:30:31.571Z,13.38
2018-12-03T03:33:00.916Z,13.38
2018-12-03T03:35:30.217Z,13.38
2018-12-03T03:37:59.524Z,13.38
2018-12-03T03:40:34.987Z,13.38
2018-12-03T03:43:04.384Z,13.39
2018-12-03T03:45:33.701Z,13.39
2018-12-03T03:48:03.105Z,13.39
2018-12-03T03:50:32.449Z,13.39
2018-12-03T03:53:01.766Z,13.36
2018-12-03T03:55:31.085Z,13.33
2018-12-03T03:58:00.384Z,13.27
2018-12-03T04:01:32.260Z,13.25
2018-12-03T04:04:01.588Z,13.21
2018-12-03T04:06:30.908Z,13.21
2018-12-03T04:09:00.237Z,13.31
2018-12-03T04:11:29.540Z,13.27
2018-12-03T04:13:58.877Z,13.26
2018-12-03T04:16:28.200Z,13.24
2018-12-03T04:18:57.590Z,13.23
2018-12-03T04:21:26.945Z,13.21
2018-12-03T04:23:56.277Z,13.20
2018-12-03T04:26:25.611Z,13.20
2018-12-03T04:28:54.956Z,13.21
2018-12-03T04:31:24.367Z,13.22
2018-12-03T04:33:53.683Z,13.20
2018-12-03T04:36:23.010Z,13.15
2018-12-03T04:38:52.325Z,13.08
2018-12-03T04:41:21.703Z,13.04
2018-12-03T04:43:51.189Z,13.02
2018-12-03T04:46:20.538Z,12.99
2018-12-03T04:48:49.873Z,12.96
2018-12-03T04:51:19.202Z,12.94
2018-12-03T04:53:48.567Z,12.92
2018-12-03T04:56:17.900Z,12.92
2018-12-03T04:58:47.203Z,12.90
2018-12-03T05:01:16.509Z,12.90
2018-12-03T05:03:45.803Z,12.90
2018-12-03T05:06:15.111Z,12.89
2018-12-03T05:08:44.516Z,12.90
2018-12-03T05:11:13.824Z,12.93
2018-12-03T05:13:43.123Z,12.97
2018-12-03T05:16:12.438Z,13.00
2018-12-03T05:18:41.752Z,13.02
2018-12-03T05:21:11.086Z,13.04
2018-12-03T05:23:40.420Z,13.05
2018-12-03T05:26:09.725Z,13.04
2018-12-03T05:28:39.072Z,13.02
2018-12-03T05:31:08.384Z,13.00
2018-12-03T05:33:37.820Z,12.99
2018-12-03T05:36:07.199Z,13.00
2018-12-03T05:38:36.558Z,12.97
2018-12-03T05:41:06.594Z,12.93
2018-12-03T05:43:35.941Z,12.89
2018-12-03T05:46:06.567Z,12.86
2018-12-03T05:48:35.993Z,12.86
2018-12-03T05:51:06.822Z,12.87
2018-12-03T05:53:36.160Z,12.90
2018-12-03T05:56:06.254Z,12.92
2018-12-03T05:58:35.600Z,12.91
2018-12-03T06:01:06.532Z,12.94
2018-12-03T06:03:35.940Z,12.97
2018-12-03T06:06:06.528Z,12.98
2018-12-03T06:08:35.859Z,12.96
2018-12-03T06:11:06.587Z,12.96
2018-12-03T06:13:35.911Z,12.92
2018-12-03T06:16:06.494Z,12.91
2018-12-03T06:18:35.817Z,12.91
2018-12-03T06:21:06.036Z,12.90
2018-12-03T06:23:35.357Z,12.88
2018-12-03T06:26:06.032Z,12.83
2018-12-03T06:28:35.358Z,12.75
2018-12-03T06:31:06.002Z,12.65
2018-12-03T06:33:35.327Z,12.56
2018-12-03T06:36:04.791Z,12.46
2018-12-03T06:38:34.119Z,12.38
2018-12-03T06:41:03.465Z,12.31
2018-12-03T06:43:32.773Z,12.26
2018-12-03T06:46:02.163Z,12.20
2018-12-03T06:48:31.492Z,12.14
2018-12-03T06:51:01.106Z,12.05
2018-12-03T06:53:30.460Z,11.99
2018-12-03T06:55:59.800Z,11.91
2018-12-03T06:58:43.820Z,11.87
2018-12-03T07:01:13.165Z,11.84
2018-12-03T07:03:42.660Z,11.80
2018-12-03T07:06:12.015Z,11.75
2018-12-03T07:08:41.379Z,11.68
2018-12-03T07:11:10.695Z,11.63
2018-12-03T07:13:44.236Z,11.60
2018-12-03T07:16:13.585Z,11.59
2018-12-03T07:18:42.924Z,11.60
2018-12-03T07:21:12.261Z,11.61
2018-12-03T07:23:41.573Z,11.62
2018-12-03T07:26:10.907Z,11.67
2018-12-03T07:28:40.256Z,11.84
2018-12-03T07:31:09.576Z,11.84
2018-12-03T07:33:38.931Z,11.86
2018-12-03T07:36:08.251Z,11.86
2018-12-03T07:38:37.568Z,11.86
2018-12-03T07:41:07.007Z,11.85
2018-12-03T07:43:36.818Z,11.87
2018-12-03T07:46:06.316Z,11.88
2018-12-03T07:48:35.654Z,11.93
2018-12-03T07:51:06.401Z,11.97
2018-12-03T07:53:35.778Z,12.12
2018-12-03T07:56:06.780Z,12.13
2018-12-03T07:58:36.083Z,12.15
2018-12-03T08:01:06.279Z,12.16
2018-12-03T08:03:35.615Z,12.21
2018-12-03T08:06:06.688Z,12.25
2018-12-03T08:08:36.110Z,12.29
2018-12-03T08:11:06.686Z,12.33
2018-12-03T08:13:36.004Z,12.36
2018-12-03T08:16:06.325Z,12.40
2018-12-03T08:18:35.649Z,12.44
2018-12-03T08:21:09.022Z,12.47
2018-12-03T08:23:52.756Z,12.49
2018-12-03T08:26:22.748Z,12.51
2018-12-03T08:28:52.069Z,12.55
2018-12-03T08:31:21.485Z,12.56
2018-12-03T08:33:50.816Z,12.60
2018-12-03T08:36:20.259Z,12.61
2018-12-03T08:38:49.626Z,12.64
2018-12-03T08:41:19.103Z,12.67
2018-12-03T08:43:48.464Z,12.66
2018-12-03T08:46:17.838Z,12.73
2018-12-03T08:48:47.196Z,12.75
2018-12-03T08:51:16.568Z,12.78
2018-12-03T08:53:48.355Z,12.80
2018-12-03T08:56:17.707Z,12.83
2018-12-03T08:58:47.778Z,12.81
2018-12-03T09:01:19.776Z,12.87
2018-12-03T09:04:09.788Z,12.90
2018-12-03T09:06:39.127Z,12.93
2018-12-03T09:09:13.364Z,12.95
2018-12-03T09:11:50.125Z,12.96
2018-12-03T09:14:25.611Z,12.97
2018-12-03T09:16:55.029Z,12.98
2018-12-03T09:19:24.379Z,12.99
2018-12-03T09:21:53.696Z,13.02
2018-12-03T09:24:23.088Z,13.02
2018-12-03T09:26:52.436Z,13.04
2018-12-03T09:29:21.777Z,13.07
2018-12-03T09:31:51.235Z,13.08
2018-12-03T09:34:20.573Z,13.10
2018-12-03T09:36:49.917Z,13.11
2018-12-03T09:39:19.918Z,13.11
2018-12-03T09:41:49.937Z,13.13
2018-12-03T09:44:19.306Z,13.14
2018-12-03T09:46:49.609Z,13.17
2018-12-03T09:49:18.925Z,13.18
2018-12-03T09:51:49.861Z,13.22
2018-12-03T09:54:19.721Z,13.26
2018-12-03T09:56:52.873Z,13.28
2018-12-03T09:59:24.341Z,13.29
2018-12-03T10:01:58.071Z,13.29
2018-12-03T10:04:36.620Z,13.22
2018-12-03T10:07:06.434Z,13.12
2018-12-03T10:09:40.775Z,13.09
2018-12-03T10:12:10.781Z,13.10
2018-12-03T10:14:40.206Z,13.09
2018-12-03T10:17:09.818Z,13.12
2018-12-03T10:19:39.125Z,13.15
2018-12-03T10:22:09.036Z,13.21
2018-12-03T10:24:40.461Z,13.26
2018-12-03T10:27:12.810Z,13.29
2018-12-03T10:29:42.795Z,13.35
2018-12-03T10:32:17.823Z,13.37
2018-12-03T10:34:47.282Z,13.41
2018-12-03T10:37:18.337Z,13.42
2018-12-03T10:39:47.643Z,13.44
2018-12-03T10:42:18.635Z,13.47
2018-12-03T10:44:48.772Z,13.48
2018-12-03T10:47:18.117Z,13.50
2018-12-03T10:49:47.436Z,13.49
2018-12-03T10:52:21.760Z,13.50
2018-12-03T10:54:55.678Z,13.50
2018-12-03T10:57:25.167Z,13.50
2018-12-03T10:59:56.141Z,13.52
2018-12-03T11:02:37.001Z,13.49
2018-12-03T11:05:13.305Z,13.50
2018-12-03T11:07:45.967Z,13.48
2018-12-03T11:10:20.534Z,13.49
2018-12-03T11:17:09.437Z,13.50
2018-12-03T11:19:38.885Z,13.41
2018-12-03T11:22:08.224Z,13.45
2018-12-03T11:24:37.540Z,13.49
2018-12-03T11:27:06.968Z,13.51
2018-12-03T11:29:41.665Z,13.57
2018-12-03T11:32:11.016Z,13.58
2018-12-03T11:34:40.314Z,13.58
2018-12-03T11:37:15.696Z,13.55
2018-12-03T11:39:56.477Z,13.56
2018-12-03T11:42:29.850Z,13.58
2018-12-03T11:44:59.182Z,13.64
2018-12-03T11:47:28.748Z,13.68
2018-12-03T11:49:58.091Z,13.68
2018-12-03T11:52:27.433Z,13.66
2018-12-03T11:54:56.922Z,13.66
2018-12-03T11:57:26.294Z,13.63
2018-12-03T11:59:55.622Z,13.61
2018-12-03T12:02:25.042Z,13.56
2018-12-03T12:04:54.409Z,13.52
2018-12-03T12:07:23.796Z,13.50
2018-12-03T12:09:53.566Z,13.48
2018-12-03T12:12:23.887Z,13.48
2018-12-03T12:14:53.700Z,13.53
2018-12-03T12:17:23.006Z,13.53
2018-12-03T12:19:52.344Z,13.55
2018-12-03T12:22:21.714Z,13.60
2018-12-03T12:24:51.028Z,13.61
2018-12-03T12:27:27.451Z,13.64
2018-12-03T12:29:56.780Z,13.61
2018-12-03T12:32:26.167Z,13.62
2018-12-03T12:34:55.483Z,13.54
2018-12-03T12:37:24.822Z,13.52
2018-12-03T12:39:54.156Z,13.44
2018-12-03T12:42:23.480Z,13.40
2018-12-03T12:44:52.809Z,13.40
2018-12-03T12:47:22.197Z,13.39
2018-12-03T12:49:51.566Z,13.37
2018-12-03T12:52:21.635Z,13.34
2018-12-03T12:54:51.015Z,13.35
2018-12-03T12:57:22.905Z,13.37
2018-12-03T12:59:52.233Z,13.43
2018-12-03T13:02:21.740Z,13.52
2018-12-03T13:04:51.184Z,13.58
2018-12-03T13:07:20.519Z,13.60
2018-12-03T13:09:49.850Z,13.61
2018-12-03T13:12:19.221Z,13.66
2018-12-03T13:14:48.600Z,13.69
2018-12-03T13:17:18.038Z,13.72
2018-12-03T13:19:47.370Z,13.78
2018-12-03T13:22:16.771Z,13.86
2018-12-03T13:24:46.126Z,13.93
2018-12-03T13:27:15.482Z,13.95
2018-12-03T13:29:44.989Z,13.92
2018-12-03T13:32:14.333Z,13.87
2018-12-03T13:34:43.664Z,13.83
2018-12-03T13:37:12.993Z,13.83
2018-12-03T13:39:42.353Z,13.87
2018-12-03T13:42:11.678Z,13.90
2018-12-03T13:44:41.016Z,13.91
2018-12-03T13:47:10.378Z,13.90
2018-12-03T13:49:39.687Z,13.94
2018-12-03T13:52:09.032Z,13.98
2018-12-03T13:54:38.369Z,13.92
2018-12-03T13:57:07.689Z,13.83
2018-12-03T13:59:37.023Z,13.69
2018-12-03T14:02:08.997Z,13.62
2018-12-03T14:04:38.560Z,13.61
2018-12-03T14:07:15.008Z,13.56
2018-12-03T14:10:02.021Z,13.49
2018-12-03T14:12:37.697Z,13.36
2018-12-03T14:16:21.902Z,13.28
2018-12-03T14:18:56.558Z,13.13
2018-12-03T14:21:47.994Z,13.09
2018-12-03T14:27:52.412Z,12.89
2018-12-03T14:31:24.916Z,12.81
2018-12-03T14:33:54.286Z,12.69
2018-12-03T14:36:23.609Z,12.66
2018-12-03T14:38:53.931Z,12.69
2018-12-03T14:41:23.283Z,12.73
2018-12-03T14:43:52.589Z,12.80
2018-12-03T14:46:22.875Z,12.85
2018-12-03T14:48:52.196Z,12.89
2018-12-03T14:51:21.596Z,12.91
2018-12-03T14:53:50.920Z,12.89
2018-12-03T14:56:20.260Z,12.87
2018-12-03T14:58:49.595Z,12.86
2018-12-03T15:01:18.917Z,12.89
2018-12-03T15:03:48.280Z,12.90
2018-12-03T15:06:17.629Z,12.93
2018-12-03T15:08:46.945Z,12.96
2018-12-03T15:11:16.318Z,12.94
2018-12-03T15:13:45.669Z,12.96
2018-12-03T15:16:15.036Z,12.94
2018-12-03T15:18:44.392Z,12.85
2018-12-03T15:21:13.845Z,12.92
2018-12-03T15:23:43.203Z,12.90
2018-12-03T15:26:12.540Z,12.81
2018-12-03T15:28:41.866Z,12.71
2018-12-03T15:31:11.221Z,12.62
2018-12-03T15:33:40.556Z,12.56
2018-12-03T15:36:09.903Z,12.53
2018-12-03T15:38:39.237Z,12.50
2018-12-03T15:41:08.620Z,12.47
2018-12-03T15:43:39.495Z,12.45
2018-12-03T15:46:08.808Z,12.46
2018-12-03T15:48:38.128Z,12.47
2018-12-03T15:51:07.464Z,12.45
2018-12-03T15:53:36.800Z,12.43
2018-12-03T15:56:06.681Z,12.42
2018-12-03T15:58:36.028Z,12.41
2018-12-03T16:01:06.112Z,12.40
2018-12-03T16:03:36.028Z,12.38
2018-12-03T16:06:06.447Z,12.35
2018-12-03T16:08:36.091Z,12.38
2018-12-03T16:11:06.497Z,12.40
2018-12-03T16:13:36.081Z,12.42
2018-12-03T16:16:06.637Z,12.43
2018-12-03T16:18:36.219Z,12.38
2018-12-03T16:21:06.747Z,12.36
2018-12-03T16:23:36.268Z,12.32
2018-12-03T16:26:06.286Z,12.31
2018-12-03T16:28:35.803Z,12.29
2018-12-03T16:31:06.528Z,12.27
2018-12-03T16:33:36.048Z,12.23
2018-12-03T16:36:06.576Z,12.19
2018-12-03T16:38:36.346Z,12.20
2018-12-03T16:41:06.607Z,12.21
2018-12-03T16:43:36.228Z,12.22
2018-12-03T16:46:06.115Z,12.21
2018-12-03T16:48:35.735Z,12.17
2018-12-03T16:51:06.035Z,12.13
2018-12-03T16:53:35.368Z,12.06
2018-12-03T16:56:05.966Z,12.01
2018-12-03T16:58:35.288Z,11.98
2018-12-03T17:01:04.681Z,11.96
2018-12-03T17:03:34.024Z,11.94
2018-12-03T17:06:03.381Z,11.99
2018-12-03T17:08:33.953Z,12.01
2018-12-03T17:11:02.227Z,12.04
2018-12-03T17:13:31.660Z,12.08
2018-12-03T17:16:01.106Z,12.10
2018-12-03T17:18:30.437Z,12.13
2018-12-03T17:21:10.994Z,12.16
2018-12-03T17:23:56.560Z,12.17
2018-12-03T17:26:25.940Z,12.19
2018-12-03T17:28:55.268Z,12.17
2018-12-03T17:31:24.667Z,12.15
2018-12-03T17:33:53.979Z,12.12
2018-12-03T17:36:23.371Z,12.08
2018-12-03T17:38:52.720Z,12.03
2018-12-03T17:41:22.110Z,11.99
2018-12-03T17:43:51.446Z,11.95
2018-12-03T17:46:21.631Z,11.89
2018-12-03T17:48:50.969Z,11.86
2018-12-03T17:51:20.353Z,11.82
2018-12-03T17:53:49.694Z,11.79
2018-12-03T17:56:19.192Z,11.74
2018-12-03T17:58:48.538Z,11.70
2018-12-03T18:01:17.853Z,11.67
2018-12-03T18:03:48.543Z,11.64
2018-12-03T18:06:17.903Z,11.62
2018-12-03T18:08:47.430Z,11.60
2018-12-03T18:11:16.932Z,11.57
2018-12-03T18:13:46.437Z,11.61
2018-12-03T18:16:16.016Z,11.61
2018-12-03T18:18:45.547Z,11.60
2018-12-03T18:21:15.140Z,11.55
2018-12-03T18:23:44.665Z,11.58
2018-12-03T18:26:14.236Z,11.57
2018-12-03T18:28:46.642Z,11.61
2018-12-03T18:31:16.256Z,11.64
2018-12-03T18:33:45.874Z,11.68
2018-12-03T18:36:15.883Z,11.67
2018-12-03T18:39:21.037Z,11.55
2018-12-03T18:41:50.773Z,11.29
2018-12-03T18:44:20.587Z,11.14
2018-12-03T18:46:50.296Z,11.03
2018-12-03T18:49:27.761Z,10.95
2018-12-03T18:51:57.602Z,10.86
2018-12-03T18:54:27.387Z,10.82
2018-12-03T18:56:56.996Z,10.78
2018-12-03T18:59:27.267Z,10.73
2018-12-03T19:01:57.042Z,10.69
2018-12-03T19:04:26.719Z,10.65
2018-12-03T19:06:56.731Z,10.57
2018-12-03T19:09:26.413Z,10.49
2018-12-03T19:11:56.169Z,10.38
2018-12-03T19:14:26.014Z,10.30
2018-12-03T19:16:55.676Z,10.19
2018-12-03T19:19:25.410Z,10.12
2018-12-03T19:21:55.129Z,10.08
2018-12-03T19:24:24.780Z,10.03
2018-12-03T19:26:54.425Z,10.00
2018-12-03T19:29:24.134Z,10.00
2018-12-03T19:31:53.962Z,9.96
2018-12-03T19:34:23.647Z,9.94
2018-12-03T19:36:53.291Z,9.90
2018-12-03T19:39:23.091Z,9.87
2018-12-03T19:41:52.785Z,9.80
2018-12-03T19:44:22.714Z,9.75
2018-12-03T19:46:52.602Z,9.68
2018-12-03T19:49:22.512Z,9.61
2018-12-03T19:51:52.325Z,9.59
2018-12-03T19:54:22.576Z,9.57
2018-12-03T19:56:52.363Z,9.55
2018-12-03T19:59:24.133Z,9.53
2018-12-03T20:01:53.840Z,9.51
2018-12-03T20:04:28.672Z,9.50
2018-12-03T20:06:58.412Z,9.49
2018-12-03T20:09:28.204Z,9.48
2018-12-03T20:11:58.016Z,9.48
2018-12-03T20:14:27.646Z,9.47
2018-12-03T20:16:59.291Z,9.46
2018-12-03T20:19:28.939Z,9.46
2018-12-03T20:21:58.777Z,9.46
2018-12-03T20:24:28.930Z,9.47
2018-12-03T20:27:16.031Z,9.46
2018-12-03T20:29:55.603Z,9.46
2018-12-03T20:32:37.381Z,9.45
2018-12-03T20:35:27.253Z,9.43
2018-12-03T20:38:21.583Z,9.40
2018-12-03T20:41:25.453Z,9.40
2018-12-03T20:43:59.236Z,9.40
2018-12-03T20:47:38.387Z,9.39
2018-12-03T20:51:17.958Z,9.37
2018-12-03T20:53:49.675Z,9.32
2018-12-03T20:56:19.626Z,9.33
2018-12-03T20:58:49.517Z,9.34
2018-12-03T21:01:19.234Z,9.30
2018-12-03T21:03:49.247Z,9.27
2018-12-03T21:06:18.849Z,9.18
2018-12-03T21:08:48.562Z,9.09
2018-12-03T21:11:18.135Z,8.97
2018-12-03T21:13:47.689Z,8.97
2018-12-03T21:16:17.192Z,8.96
2018-12-03T21:18:46.818Z,8.99
2018-12-03T21:21:17.385Z,9.00
2018-12-03T21:23:49.677Z,9.02
2018-12-03T21:26:19.600Z,9.01
2018-12-03T21:28:49.325Z,8.98
2018-12-03T21:31:19.086Z,8.96
2018-12-03T21:33:48.913Z,9.00
2018-12-03T21:36:18.964Z,9.02
2018-12-03T21:41:14.900Z,9.04
2018-12-03T21:43:44.609Z,9.05
2018-12-03T21:46:14.240Z,9.05
2018-12-03T21:48:46.710Z,9.07
2018-12-03T21:51:16.478Z,9.07
2018-12-03T21:53:46.110Z,9.08
2018-12-03T21:56:15.815Z,9.09
2018-12-03T21:58:45.567Z,9.07
2018-12-03T22:01:15.131Z,9.09
2018-12-03T22:03:44.691Z,9.08
2018-12-03T22:06:14.544Z,9.08
2018-12-03T22:08:44.237Z,9.04
2018-12-03T22:11:13.893Z,9.04
2018-12-03T22:13:44.548Z,9.00
2018-12-03T22:16:14.127Z,8.99
2018-12-03T22:18:43.697Z,9.00
2018-12-03T22:21:13.412Z,9.02
2018-12-03T22:23:43.167Z,9.00
2018-12-03T22:26:12.737Z,9.03
2018-12-03T22:28:42.338Z,9.03
2018-12-03T22:33:43.484Z,8.98
2018-12-03T22:36:13.019Z,8.96
2018-12-03T22:41:28.501Z,8.89
2018-12-03T22:46:33.888Z,8.87
2018-12-03T22:49:03.531Z,8.87
2018-12-03T22:51:33.147Z,8.85
2018-12-03T22:54:08.278Z,8.81
2018-12-03T22:56:37.921Z,8.76
2018-12-03T22:59:08.681Z,8.73
2018-12-03T23:01:38.137Z,8.64
2018-12-03T23:04:07.549Z,8.55
2018-12-03T23:06:36.924Z,8.46
2018-12-03T23:09:09.139Z,8.37
2018-12-03T23:11:38.494Z,8.30
2018-12-03T23:14:07.927Z,8.21
2018-12-03T23:16:37.775Z,8.15
2018-12-03T23:19:07.304Z,8.16
2018-12-03T23:21:36.636Z,8.15
2018-12-03T23:24:06.471Z,8.17
2018-12-03T23:26:36.037Z,8.14
2018-12-03T23:29:06.178Z,8.10
2018-12-03T23:31:35.571Z,8.06
2018-12-03T23:34:06.838Z,8.13
2018-12-03T23:36:36.283Z,8.04
2018-12-03T23:39:08.490Z,7.95
2018-12-03T23:41:38.312Z,7.87
2018-12-03T23:44:07.682Z,7.83
2018-12-03T23:46:37.004Z,7.79
2018-12-03T23:49:06.326Z,7.75
2018-12-03T23:51:36.351Z,7.71
2018-12-03T23:54:06.232Z,7.64
2018-12-03T23:56:35.604Z,7.58
2018-12-03T23:59:06.350Z,7.52
